createdAt,value
2019-02-15T02:26:02.390Z,94.40
2019-02-15T02:29:01.181Z,94.80
2019-02-15T04:31:58.489Z,94.70
2019-02-15T05:09:09.917Z,93.20
2019-02-15T05:13:27.458Z,93.10
2019-02-15T05:17:13.560Z,93.20
2019-02-15T05:52:35.522Z,93.30
2019-02-15T06:03:05.702Z,93.70
2019-02-15T06:18:47.227Z,93.40
2019-02-15T06:25:36.794Z,92.70
2019-02-15T06:28:41.827Z,92.30
2019-02-15T06:35:12.291Z,93.20
2019-02-15T06:41:26.456Z,91.90
2019-02-15T06:48:49.957Z,92.70
2019-02-15T06:52:21.415Z,93.10
2019-02-15T07:06:44.365Z,93.60
2019-02-15T07:09:19.397Z,93.30
2019-02-15T07:16:04.591Z,93.20
2019-02-15T07:22:11.504Z,93.00
2019-02-15T07:25:49.307Z,92.50
2019-02-15T07:32:47.616Z,70.90
2019-02-15T07:35:23.162Z,48.10
2019-02-15T07:41:51.037Z,35.30
2019-02-15T07:47:59.239Z,29.50
2019-02-15T07:50:32.888Z,27.90
2019-02-15T07:53:06.696Z,26.70
2019-02-15T07:55:44.189Z,26.00
2019-02-15T07:58:19.030Z,25.10
2019-02-15T08:00:56.717Z,24.40
2019-02-15T08:10:19.619Z,22.70
2019-02-15T08:20:03.920Z,21.90
2019-02-15T08:22:36.551Z,21.70
2019-02-15T08:25:29.084Z,21.30
2019-02-15T08:28:08.381Z,21.30
2019-02-15T08:30:41.304Z,21.60
2019-02-15T08:33:14.866Z,20.90
2019-02-15T08:35:47.258Z,20.50
2019-02-15T08:38:29.709Z,20.20
2019-02-15T08:41:04.134Z,20.40
2019-02-15T08:43:37.543Z,20.20
2019-02-15T08:46:09.895Z,20.70
2019-02-15T08:48:46.255Z,20.50
2019-02-15T08:51:16.484Z,20.20
2019-02-15T08:53:50.805Z,20.10
2019-02-15T08:56:23.164Z,19.80
2019-02-15T08:58:55.394Z,19.60
2019-02-15T09:01:28.074Z,19.60
2019-02-15T09:04:00.623Z,19.50
2019-02-15T09:06:33.717Z,20.10
2019-02-15T09:09:06.891Z,20.20
2019-02-15T09:11:41.096Z,21.20
2019-02-15T09:14:14.341Z,21.40
2019-02-15T09:21:05.804Z,21.30
2019-02-15T09:23:39.269Z,21.50
2019-02-15T09:29:08.830Z,20.60
2019-02-15T09:31:45.812Z,20.50
2019-02-15T09:34:53.209Z,20.50
2019-02-15T09:38:37.143Z,20.50
2019-02-15T09:41:10.848Z,21.00
2019-02-15T09:51:16.756Z,23.30
2019-02-15T10:03:32.734Z,29.10
2019-02-15T10:25:27.568Z,32.20
2019-02-15T10:28:12.419Z,31.50
2019-02-15T10:34:47.295Z,30.90
2019-02-15T10:43:48.355Z,30.60
2019-02-15T10:46:23.322Z,30.80
2019-02-15T10:48:58.740Z,31.20
2019-02-15T10:57:49.713Z,30.70
2019-02-15T11:00:28.748Z,29.90
2019-02-15T11:03:33.577Z,29.80
2019-02-15T11:06:15.552Z,30.00
2019-02-15T11:09:26.453Z,30.00
2019-02-15T11:12:27.599Z,29.30
2019-02-15T11:14:42.232Z,29.10
2019-02-15T11:21:02.143Z,28.40
2019-02-15T11:24:33.423Z,27.80
2019-02-15T11:39:52.579Z,24.30
2019-02-15T11:43:31.236Z,22.90
2019-02-15T11:48:02.056Z,21.80
2019-02-15T12:00:28.664Z,20.00
2019-02-15T12:12:21.040Z,21.20
2019-02-15T12:16:08.963Z,21.90
2019-02-15T13:00:03.199Z,18.60
2019-02-15T16:12:49.848Z,42.00
2019-02-15T18:46:22.704Z,72.60
2019-02-15T18:49:06.498Z,74.20
2019-02-15T18:51:57.336Z,75.50
2019-02-15T18:54:29.351Z,77.30
2019-02-15T18:57:01.225Z,78.50
2019-02-15T18:59:33.330Z,79.30
2019-02-15T19:02:05.239Z,79.10
2019-02-15T19:04:37.145Z,79.60
2019-02-15T19:07:09.045Z,79.70
2019-02-15T19:09:40.949Z,80.10
2019-02-15T19:12:12.841Z,79.60
2019-02-15T19:14:44.746Z,79.50
2019-02-15T19:17:16.652Z,78.80
2019-02-15T19:19:48.560Z,78.90
2019-02-15T19:22:20.472Z,78.80
2019-02-15T19:24:52.377Z,78.90
2019-02-15T19:27:24.288Z,79.00
2019-02-15T19:29:57.231Z,78.90
2019-02-15T19:32:34.419Z,79.60
2019-02-15T19:35:06.743Z,80.50
2019-02-15T19:37:38.637Z,79.20
2019-02-15T19:40:12.237Z,79.60
2019-02-15T19:42:46.495Z,79.90
2019-02-15T19:45:18.404Z,80.60
2019-02-15T19:47:50.300Z,81.00
2019-02-15T19:50:22.209Z,80.70
2019-02-15T19:52:56.363Z,80.50
2019-02-15T19:55:28.312Z,80.80
2019-02-15T19:58:00.227Z,81.40
2019-02-15T20:00:32.139Z,80.50
2019-02-15T20:03:04.040Z,81.20
2019-02-15T20:05:35.950Z,80.90
2019-02-15T20:08:07.956Z,81.10
2019-02-15T20:10:39.950Z,81.80
2019-02-15T20:13:13.006Z,82.20
2019-02-15T20:15:44.913Z,83.20
2019-02-15T20:18:17.993Z,83.40
2019-02-15T20:20:49.893Z,83.00
2019-02-15T20:23:21.811Z,83.60
2019-02-15T20:25:53.700Z,84.80
2019-02-15T20:28:25.611Z,85.10
2019-02-15T20:30:58.447Z,85.50
2019-02-15T20:33:30.354Z,85.50
2019-02-15T20:36:02.269Z,85.40
2019-02-15T20:38:34.175Z,86.10
2019-02-15T20:41:06.079Z,85.80
2019-02-15T20:43:37.979Z,85.30
2019-02-15T20:46:09.895Z,85.20
2019-02-15T20:48:41.806Z,85.00
2019-02-15T20:51:13.777Z,85.00
2019-02-15T20:53:48.273Z,85.30
2019-02-15T20:56:28.281Z,85.20
2019-02-15T20:59:00.191Z,85.60
2019-02-15T21:01:33.614Z,86.00
2019-02-15T21:04:06.294Z,87.10
2019-02-15T21:06:38.194Z,88.30
2019-02-15T21:09:10.107Z,88.30
2019-02-15T21:11:42.022Z,88.60
2019-02-15T21:14:13.944Z,88.30
2019-02-15T21:16:46.150Z,88.20
2019-02-15T21:19:20.015Z,87.50
2019-02-15T21:21:51.937Z,87.60
2019-02-15T21:24:23.843Z,87.80
2019-02-15T21:27:06.085Z,87.90
2019-02-15T21:29:38.290Z,87.90
2019-02-15T21:32:10.213Z,88.00
2019-02-15T21:34:42.123Z,88.80
2019-02-15T21:37:18.209Z,89.30
2019-02-15T21:39:50.112Z,89.80
2019-02-15T21:42:22.024Z,89.70
2019-02-15T21:44:56.392Z,89.80
2019-02-15T21:47:28.309Z,90.00
2019-02-15T21:50:00.323Z,90.00
2019-02-15T21:52:32.198Z,90.00
2019-02-15T21:55:05.577Z,89.70
2019-02-15T21:57:37.551Z,90.00
2019-02-15T22:00:13.271Z,90.10
2019-02-15T22:02:45.184Z,90.00
2019-02-15T22:05:18.994Z,90.00
2019-02-15T22:07:53.421Z,90.30
2019-02-15T22:10:25.341Z,90.20
2019-02-15T22:12:57.266Z,90.00
2019-02-15T22:15:29.175Z,90.00
2019-02-15T22:18:04.350Z,90.10
2019-02-15T22:20:37.180Z,90.20
2019-02-15T22:23:09.101Z,90.30
2019-02-15T22:25:41.013Z,90.30
2019-02-15T22:28:12.920Z,90.40
2019-02-15T22:30:44.826Z,90.50
2019-02-15T22:33:16.735Z,90.50
2019-02-15T22:35:48.636Z,90.40
2019-02-15T22:38:21.860Z,90.90
2019-02-15T22:41:14.068Z,91.10
2019-02-15T22:43:49.034Z,91.50
2019-02-15T22:46:20.945Z,91.90
2019-02-15T22:48:52.871Z,92.10
2019-02-15T22:51:25.936Z,92.10
2019-02-15T22:54:01.698Z,92.00
2019-02-15T22:56:34.450Z,91.90
2019-02-15T22:59:06.362Z,91.80
2019-02-15T23:01:41.496Z,91.80
2019-02-15T23:04:13.776Z,91.50
2019-02-15T23:06:45.692Z,91.40
2019-02-15T23:09:25.561Z,91.30
2019-02-15T23:11:57.656Z,91.40
2019-02-15T23:14:29.890Z,91.40
2019-02-15T23:17:01.799Z,91.40
2019-02-15T23:19:33.716Z,91.40
2019-02-15T23:22:05.645Z,91.60
2019-02-15T23:24:37.560Z,91.60
2019-02-15T23:27:09.463Z,91.50
2019-02-15T23:29:41.374Z,91.80
2019-02-15T23:32:13.275Z,91.90
2019-02-15T23:34:45.182Z,92.10
2019-02-15T23:37:17.092Z,91.90
2019-02-15T23:39:49.010Z,92.10
2019-02-15T23:42:21.279Z,91.80
2019-02-15T23:44:53.193Z,91.80
2019-02-15T23:47:25.107Z,91.40
2019-02-15T23:49:57.032Z,91.40
2019-02-15T23:52:28.945Z,91.20
2019-02-15T23:55:00.881Z,91.10
2019-02-15T23:57:32.782Z,91.00
